sensor_id;sensor_type;location;lat;lon;timestamp;pressure;altitude;pressure_sealevel;temperature;humidity
60974;BME280;46846;51.528;5.076;2023-04-24T00:02:19;99470.50;;;10.42;73.86
60974;BME280;46846;51.528;5.076;2023-04-24T00:04:45;99460.78;;;10.41;73.72
60974;BME280;46846;51.528;5.076;2023-04-24T00:07:10;99463.59;;;10.38;73.71
60974;BME280;46846;51.528;5.076;2023-04-24T00:09:36;99466.31;;;10.36;73.63
60974;BME280;46846;51.528;5.076;2023-04-24T00:12:01;99475.16;;;10.37;73.91
60974;BME280;46846;51.528;5.076;2023-04-24T00:14:29;99463.84;;;10.33;73.95
60974;BME280;46846;51.528;5.076;2023-04-24T00:16:54;99467.28;;;10.35;73.78
60974;BME280;46846;51.528;5.076;2023-04-24T00:19:22;99471.91;;;10.32;73.91
60974;BME280;46846;51.528;5.076;2023-04-24T00:21:48;99466.75;;;10.29;74.05
60974;BME280;46846;51.528;5.076;2023-04-24T00:24:16;99472.84;;;10.31;73.95
60974;BME280;46846;51.528;5.076;2023-04-24T00:26:42;99473.78;;;10.30;73.97
60974;BME280;46846;51.528;5.076;2023-04-24T00:29:07;99480.13;;;10.27;73.92
60974;BME280;46846;51.528;5.076;2023-04-24T00:31:32;99477.59;;;10.25;74.11
60974;BME280;46846;51.528;5.076;2023-04-24T00:34:00;99471.47;;;10.23;74.22
60974;BME280;46846;51.528;5.076;2023-04-24T00:36:25;99476.09;;;10.20;74.17
60974;BME280;46846;51.528;5.076;2023-04-24T00:38:52;99472.59;;;10.19;74.18
60974;BME280;46846;51.528;5.076;2023-04-24T00:41:17;99469.00;;;10.20;74.04
60974;BME280;46846;51.528;5.076;2023-04-24T00:43:42;99467.28;;;10.19;73.94
60974;BME280;46846;51.528;5.076;2023-04-24T00:46:08;99472.66;;;10.18;73.96
60974;BME280;46846;51.528;5.076;2023-04-24T00:48:33;99466.59;;;10.16;74.19
60974;BME280;46846;51.528;5.076;2023-04-24T00:50:59;99471.91;;;10.16;74.00
60974;BME280;46846;51.528;5.076;2023-04-24T00:53:24;99468.44;;;10.13;74.15
60974;BME280;46846;51.528;5.076;2023-04-24T00:55:49;99466.84;;;10.11;74.16
60974;BME280;46846;51.528;5.076;2023-04-24T00:58:15;99474.13;;;10.07;74.35
60974;BME280;46846;51.528;5.076;2023-04-24T01:00:40;99470.41;;;10.10;74.05
60974;BME280;46846;51.528;5.076;2023-04-24T01:03:06;99473.19;;;10.08;74.29
60974;BME280;46846;51.528;5.076;2023-04-24T01:05:32;99475.16;;;10.05;74.32
60974;BME280;46846;51.528;5.076;2023-04-24T01:07:57;99471.53;;;10.06;74.31
60974;BME280;46846;51.528;5.076;2023-04-24T01:10:23;99471.69;;;10.03;74.32
60974;BME280;46846;51.528;5.076;2023-04-24T01:12:49;99472.56;;;10.03;74.42
60974;BME280;46846;51.528;5.076;2023-04-24T01:15:15;99469.91;;;10.03;74.17
60974;BME280;46846;51.528;5.076;2023-04-24T01:17:40;99469.28;;;9.98;74.55
60974;BME280;46846;51.528;5.076;2023-04-24T01:20:06;99466.75;;;9.96;74.79
60974;BME280;46846;51.528;5.076;2023-04-24T01:22:33;99468.44;;;9.97;74.44
60974;BME280;46846;51.528;5.076;2023-04-24T01:24:58;99478.47;;;9.92;74.68
60974;BME280;46846;51.528;5.076;2023-04-24T01:27:23;99471.34;;;9.93;74.53
60974;BME280;46846;51.528;5.076;2023-04-24T01:29:48;99475.81;;;9.92;74.59
60974;BME280;46846;51.528;5.076;2023-04-24T01:32:16;99478.53;;;9.91;74.69
60974;BME280;46846;51.528;5.076;2023-04-24T01:34:41;99483.06;;;9.89;74.54
60974;BME280;46846;51.528;5.076;2023-04-24T01:37:07;99471.50;;;9.90;74.62
60974;BME280;46846;51.528;5.076;2023-04-24T01:39:32;99480.50;;;9.87;74.66
60974;BME280;46846;51.528;5.076;2023-04-24T01:41:58;99482.25;;;9.88;74.50
60974;BME280;46846;51.528;5.076;2023-04-24T01:44:24;99486.94;;;9.83;74.76
60974;BME280;46846;51.528;5.076;2023-04-24T01:46:51;99477.94;;;9.85;74.80
60974;BME280;46846;51.528;5.076;2023-04-24T01:49:16;99485.03;;;9.85;74.48
60974;BME280;46846;51.528;5.076;2023-04-24T01:51:42;99478.00;;;9.84;74.49
60974;BME280;46846;51.528;5.076;2023-04-24T01:54:07;99485.97;;;9.84;74.53
60974;BME280;46846;51.528;5.076;2023-04-24T01:56:35;99493.94;;;9.84;74.56
60974;BME280;46846;51.528;5.076;2023-04-24T01:59:02;99493.09;;;9.83;74.49
60974;BME280;46846;51.528;5.076;2023-04-24T02:01:29;99494.13;;;9.81;74.58
60974;BME280;46846;51.528;5.076;2023-04-24T02:03:57;99491.63;;;9.78;74.58
60974;BME280;46846;51.528;5.076;2023-04-24T02:06:23;99493.50;;;9.76;74.69
60974;BME280;46846;51.528;5.076;2023-04-24T02:08:48;99498.97;;;9.73;74.79
60974;BME280;46846;51.528;5.076;2023-04-24T02:11:14;99499.22;;;9.68;74.88
60974;BME280;46846;51.528;5.076;2023-04-24T02:13:39;99494.78;;;9.68;74.85
60974;BME280;46846;51.528;5.076;2023-04-24T02:16:04;99496.78;;;9.63;74.93
60974;BME280;46846;51.528;5.076;2023-04-24T02:18:30;99487.81;;;9.66;74.73
60974;BME280;46846;51.528;5.076;2023-04-24T02:20:55;99493.31;;;9.63;74.88
60974;BME280;46846;51.528;5.076;2023-04-24T02:23:20;99495.97;;;9.63;74.85
60974;BME280;46846;51.528;5.076;2023-04-24T02:25:45;99495.00;;;9.64;74.85
60974;BME280;46846;51.528;5.076;2023-04-24T02:28:11;99498.69;;;9.61;74.96
60974;BME280;46846;51.528;5.076;2023-04-24T02:30:36;99491.56;;;9.62;74.76
60974;BME280;46846;51.528;5.076;2023-04-24T02:33:01;99493.38;;;9.61;74.77
60974;BME280;46846;51.528;5.076;2023-04-24T02:35:26;99487.38;;;9.57;74.70
60974;BME280;46846;51.528;5.076;2023-04-24T02:37:52;99489.06;;;9.58;74.65
60974;BME280;46846;51.528;5.076;2023-04-24T02:40:17;99493.69;;;9.55;74.78
60974;BME280;46846;51.528;5.076;2023-04-24T02:42:42;99488.38;;;9.55;74.61
60974;BME280;46846;51.528;5.076;2023-04-24T02:45:07;99494.69;;;9.52;74.76
60974;BME280;46846;51.528;5.076;2023-04-24T02:47:33;99485.09;;;9.50;74.71
60974;BME280;46846;51.528;5.076;2023-04-24T02:49:58;99484.06;;;9.52;74.86
60974;BME280;46846;51.528;5.076;2023-04-24T02:52:23;99484.06;;;9.52;74.87
60974;BME280;46846;51.528;5.076;2023-04-24T02:54:48;99485.09;;;9.50;74.84
60974;BME280;46846;51.528;5.076;2023-04-24T02:57:14;99479.00;;;9.48;74.75
60974;BME280;46846;51.528;5.076;2023-04-24T02:59:40;99479.19;;;9.44;74.84
60974;BME280;46846;51.528;5.076;2023-04-24T03:02:05;99476.44;;;9.46;74.56
60974;BME280;46846;51.528;5.076;2023-04-24T03:04:30;99474.00;;;9.41;74.89
60974;BME280;46846;51.528;5.076;2023-04-24T03:06:57;99466.91;;;9.42;74.69
60974;BME280;46846;51.528;5.076;2023-04-24T03:09:22;99466.22;;;9.38;74.87
60974;BME280;46846;51.528;5.076;2023-04-24T03:11:47;99465.44;;;9.36;74.92
60974;BME280;46846;51.528;5.076;2023-04-24T03:14:13;99470.66;;;9.38;74.77
60974;BME280;46846;51.528;5.076;2023-04-24T03:16:38;99466.34;;;9.35;74.92
60974;BME280;46846;51.528;5.076;2023-04-24T03:19:04;99474.31;;;9.35;74.93
60974;BME280;46846;51.528;5.076;2023-04-24T03:21:29;99473.56;;;9.33;74.78
60974;BME280;46846;51.528;5.076;2023-04-24T03:23:54;99473.72;;;9.30;74.85
60974;BME280;46846;51.528;5.076;2023-04-24T03:26:19;99473.72;;;9.30;74.97
60974;BME280;46846;51.528;5.076;2023-04-24T03:28:45;99465.13;;;9.25;75.02
60974;BME280;46846;51.528;5.076;2023-04-24T03:31:10;99457.00;;;9.28;74.94
60974;BME280;46846;51.528;5.076;2023-04-24T03:33:35;99465.19;;;9.23;74.90
60974;BME280;46846;51.528;5.076;2023-04-24T03:36:01;99461.59;;;9.24;75.01
60974;BME280;46846;51.528;5.076;2023-04-24T03:38:26;99463.41;;;9.24;75.04
60974;BME280;46846;51.528;5.076;2023-04-24T03:40:51;99465.28;;;9.22;75.09
60974;BME280;46846;51.528;5.076;2023-04-24T03:43:16;99463.59;;;9.21;74.84
60974;BME280;46846;51.528;5.076;2023-04-24T03:45:42;99466.25;;;9.21;75.18
60974;BME280;46846;51.528;5.076;2023-04-24T03:48:07;99467.16;;;9.20;75.11
60974;BME280;46846;51.528;5.076;2023-04-24T03:50:32;99468.97;;;9.19;74.90
60974;BME280;46846;51.528;5.076;2023-04-24T03:52:58;99467.47;;;9.13;75.08
60974;BME280;46846;51.528;5.076;2023-04-24T03:55:23;99468.41;;;9.12;75.04
60974;BME280;46846;51.528;5.076;2023-04-24T03:57:48;99468.41;;;9.12;75.34
60974;BME280;46846;51.528;5.076;2023-04-24T04:00:13;99464.81;;;9.13;74.86
60974;BME280;46846;51.528;5.076;2023-04-24T04:02:39;99466.84;;;9.08;75.24
60974;BME280;46846;51.528;5.076;2023-04-24T04:05:04;99467.78;;;9.07;75.18
60974;BME280;46846;51.528;5.076;2023-04-24T04:07:30;99466.84;;;9.08;75.09
60974;BME280;46846;51.528;5.076;2023-04-24T04:09:55;99465.03;;;9.09;75.30
60974;BME280;46846;51.528;5.076;2023-04-24T04:12:20;99469.44;;;9.10;75.29
60974;BME280;46846;51.528;5.076;2023-04-24T04:14:45;99469.34;;;9.11;75.19
60974;BME280;46846;51.528;5.076;2023-04-24T04:17:11;99469.50;;;9.08;75.50
60974;BME280;46846;51.528;5.076;2023-04-24T04:19:36;99477.59;;;9.05;75.32
60974;BME280;46846;51.528;5.076;2023-04-24T04:22:02;99486.38;;;9.07;75.23
60974;BME280;46846;51.528;5.076;2023-04-24T04:24:27;99490.09;;;9.03;75.25
60974;BME280;46846;51.528;5.076;2023-04-24T04:26:53;99498.75;;;9.07;75.23
60974;BME280;46846;51.528;5.076;2023-04-24T04:29:21;99498.69;;;9.08;75.33
60974;BME280;46846;51.528;5.076;2023-04-24T04:31:47;99498.94;;;9.03;75.21
60974;BME280;46846;51.528;5.076;2023-04-24T04:34:13;99511.38;;;9.01;75.44
60974;BME280;46846;51.528;5.076;2023-04-24T04:36:39;99509.44;;;9.05;75.24
60974;BME280;46846;51.528;5.076;2023-04-24T04:39:05;99515.56;;;9.07;75.45
60974;BME280;46846;51.528;5.076;2023-04-24T04:41:30;99507.66;;;9.06;75.22
60974;BME280;46846;51.528;5.076;2023-04-24T04:43:55;99511.97;;;9.08;75.06
60974;BME280;46846;51.528;5.076;2023-04-24T04:46:23;99505.94;;;9.05;75.03
60974;BME280;46846;51.528;5.076;2023-04-24T04:48:51;99515.69;;;9.04;75.09
60974;BME280;46846;51.528;5.076;2023-04-24T04:51:17;99519.28;;;9.03;75.17
60974;BME280;46846;51.528;5.076;2023-04-24T04:53:42;99515.84;;;9.01;75.47
60974;BME280;46846;51.528;5.076;2023-04-24T04:56:07;99512.19;;;9.03;75.36
60974;BME280;46846;51.528;5.076;2023-04-24T04:58:32;99513.31;;;8.98;75.29
60974;BME280;46846;51.528;5.076;2023-04-24T05:00:58;99522.31;;;8.95;75.44
60974;BME280;46846;51.528;5.076;2023-04-24T05:03:24;99522.16;;;8.98;75.15
60974;BME280;46846;51.528;5.076;2023-04-24T05:05:49;99533.66;;;8.99;75.23
60974;BME280;46846;51.528;5.076;2023-04-24T05:08:14;99526.81;;;8.93;75.14
60974;BME280;46846;51.528;5.076;2023-04-24T05:10:40;99528.00;;;8.87;75.41
60974;BME280;46846;51.528;5.076;2023-04-24T05:13:05;99530.47;;;8.91;75.43
60974;BME280;46846;51.528;5.076;2023-04-24T05:15:30;99534.88;;;8.92;75.47
60974;BME280;46846;51.528;5.076;2023-04-24T05:17:55;99533.13;;;8.91;75.49
60974;BME280;46846;51.528;5.076;2023-04-24T05:20:21;99540.47;;;8.85;75.29
60974;BME280;46846;51.528;5.076;2023-04-24T05:22:46;99545.00;;;8.83;75.67
60974;BME280;46846;51.528;5.076;2023-04-24T05:25:11;99554.69;;;8.84;75.61
60974;BME280;46846;51.528;5.076;2023-04-24T05:27:37;99559.34;;;8.79;75.48
60974;BME280;46846;51.528;5.076;2023-04-24T05:30:03;99561.06;;;8.80;75.75
60974;BME280;46846;51.528;5.076;2023-04-24T05:32:28;99568.06;;;8.81;75.78
60974;BME280;46846;51.528;5.076;2023-04-24T05:34:53;99571.88;;;8.75;75.58
60974;BME280;46846;51.528;5.076;2023-04-24T05:37:18;99571.94;;;8.74;76.04
60974;BME280;46846;51.528;5.076;2023-04-24T05:39:44;99587.84;;;8.74;75.91
60974;BME280;46846;51.528;5.076;2023-04-24T05:42:09;99593.25;;;8.72;75.95
60974;BME280;46846;51.528;5.076;2023-04-24T05:44:34;99600.50;;;8.69;75.87
60974;BME280;46846;51.528;5.076;2023-04-24T05:47:00;99605.00;;;8.67;76.56
60974;BME280;46846;51.528;5.076;2023-04-24T05:49:25;99616.69;;;8.63;76.24
60974;BME280;46846;51.528;5.076;2023-04-24T05:51:50;99614.09;;;8.61;76.25
60974;BME280;46846;51.528;5.076;2023-04-24T05:54:16;99619.41;;;8.61;76.47
60974;BME280;46846;51.528;5.076;2023-04-24T05:56:41;99624.53;;;8.64;76.58
60974;BME280;46846;51.528;5.076;2023-04-24T05:59:06;99640.56;;;8.63;75.97
60974;BME280;46846;51.528;5.076;2023-04-24T06:01:32;99646.84;;;8.60;76.49
60974;BME280;46846;51.528;5.076;2023-04-24T06:03:58;99653.22;;;8.56;76.23
60974;BME280;46846;51.528;5.076;2023-04-24T06:06:23;99655.06;;;8.54;76.46
60974;BME280;46846;51.528;5.076;2023-04-24T06:08:48;99666.69;;;8.51;76.68
60974;BME280;46846;51.528;5.076;2023-04-24T06:11:14;99663.34;;;8.46;76.49
60974;BME280;46846;51.528;5.076;2023-04-24T06:13:39;99680.84;;;8.50;76.65
60974;BME280;46846;51.528;5.076;2023-04-24T06:16:07;99694.34;;;8.44;76.67
60974;BME280;46846;51.528;5.076;2023-04-24T06:18:33;99693.50;;;8.43;76.92
60974;BME280;46846;51.528;5.076;2023-04-24T06:20:58;99702.31;;;8.44;76.83
60974;BME280;46846;51.528;5.076;2023-04-24T06:23:23;99703.97;;;8.46;76.59
60974;BME280;46846;51.528;5.076;2023-04-24T06:25:49;99720.09;;;8.42;76.53
60974;BME280;46846;51.528;5.076;2023-04-24T06:28:15;99729.81;;;8.41;76.46
60974;BME280;46846;51.528;5.076;2023-04-24T06:30:40;99737.84;;;8.40;76.67
60974;BME280;46846;51.528;5.076;2023-04-24T06:33:06;99755.69;;;8.36;76.94
60974;BME280;46846;51.528;5.076;2023-04-24T06:35:31;99759.25;;;8.35;76.88
60974;BME280;46846;51.528;5.076;2023-04-24T06:37:56;99772.38;;;8.38;76.75
60974;BME280;46846;51.528;5.076;2023-04-24T06:40:22;99774.03;;;8.41;76.62
60974;BME280;46846;51.528;5.076;2023-04-24T06:42:47;99776.69;;;8.41;76.62
60974;BME280;46846;51.528;5.076;2023-04-24T06:45:12;99790.03;;;8.38;76.54
60974;BME280;46846;51.528;5.076;2023-04-24T06:47:38;99789.16;;;8.39;76.56
60974;BME280;46846;51.528;5.076;2023-04-24T06:50:03;99796.47;;;8.32;76.69
60974;BME280;46846;51.528;5.076;2023-04-24T06:52:29;99798.09;;;8.36;76.46
60974;BME280;46846;51.528;5.076;2023-04-24T06:55:01;99808.59;;;8.38;76.37
60974;BME280;46846;51.528;5.076;2023-04-24T06:57:27;99799.19;;;8.30;76.84
60974;BME280;46846;51.528;5.076;2023-04-24T06:59:52;99811.59;;;8.30;76.37
60974;BME280;46846;51.528;5.076;2023-04-24T07:02:17;99814.19;;;8.31;76.57
60974;BME280;46846;51.528;5.076;2023-04-24T07:04:43;99839.75;;;8.32;76.70
60974;BME280;46846;51.528;5.076;2023-04-24T07:07:08;99830.09;;;8.31;76.88
60974;BME280;46846;51.528;5.076;2023-04-24T07:09:34;99842.72;;;8.25;76.52
60974;BME280;46846;51.528;5.076;2023-04-24T07:12:03;99845.38;;;8.25;76.53
60974;BME280;46846;51.528;5.076;2023-04-24T07:14:28;99849.81;;;8.24;76.89
60974;BME280;46846;51.528;5.076;2023-04-24T07:16:53;99860.16;;;8.30;76.63
60974;BME280;46846;51.528;5.076;2023-04-24T07:19:19;99868.47;;;8.21;76.95
60974;BME280;46846;51.528;5.076;2023-04-24T07:21:44;99879.06;;;8.21;76.75
60974;BME280;46846;51.528;5.076;2023-04-24T07:24:10;99880.78;;;8.22;76.79
60974;BME280;46846;51.528;5.076;2023-04-24T07:26:36;99886.19;;;8.20;76.95
60974;BME280;46846;51.528;5.076;2023-04-24T07:29:02;99892.22;;;8.24;76.45
60974;BME280;46846;51.528;5.076;2023-04-24T07:31:27;99893.94;;;8.25;76.74
60974;BME280;46846;51.528;5.076;2023-04-24T07:33:52;99895.78;;;8.23;76.89
60974;BME280;46846;51.528;5.076;2023-04-24T07:36:17;99908.13;;;8.24;76.71
60974;BME280;46846;51.528;5.076;2023-04-24T07:38:47;99910.88;;;8.21;76.34
60974;BME280;46846;51.528;5.076;2023-04-24T07:41:12;99913.47;;;8.23;76.37
60974;BME280;46846;51.528;5.076;2023-04-24T07:43:38;99921.38;;;8.24;76.47
60974;BME280;46846;51.528;5.076;2023-04-24T07:46:03;99917.81;;;8.25;76.59
60974;BME280;46846;51.528;5.076;2023-04-24T07:48:28;99934.72;;;8.21;76.43
60974;BME280;46846;51.528;5.076;2023-04-24T07:50:53;99934.97;;;8.15;76.53
60974;BME280;46846;51.528;5.076;2023-04-24T07:53:19;99949.13;;;8.14;76.18
60974;BME280;46846;51.528;5.076;2023-04-24T07:55:45;99941.00;;;8.18;76.69
60974;BME280;46846;51.528;5.076;2023-04-24T07:58:11;99946.25;;;8.20;76.21
60974;BME280;46846;51.528;5.076;2023-04-24T08:00:36;99961.38;;;8.18;76.69
60974;BME280;46846;51.528;5.076;2023-04-24T08:03:01;99964.06;;;8.16;76.34
60974;BME280;46846;51.528;5.076;2023-04-24T08:05:27;99971.09;;;8.17;76.79
60974;BME280;46846;51.528;5.076;2023-04-24T08:07:53;99979.22;;;8.13;76.46
60974;BME280;46846;51.528;5.076;2023-04-24T08:10:19;99979.25;;;8.11;77.04
60974;BME280;46846;51.528;5.076;2023-04-24T08:12:45;99981.88;;;8.13;76.45
60974;BME280;46846;51.528;5.076;2023-04-24T08:15:10;99980.19;;;8.10;76.40
60974;BME280;46846;51.528;5.076;2023-04-24T08:17:36;99982.94;;;8.09;76.55
60974;BME280;46846;51.528;5.076;2023-04-24T08:20:02;99983.53;;;8.15;77.01
60974;BME280;46846;51.528;5.076;2023-04-24T08:22:32;100003.06;;;8.13;76.60
60974;BME280;46846;51.528;5.076;2023-04-24T08:24:59;100007.44;;;8.14;76.69
60974;BME280;46846;51.528;5.076;2023-04-24T08:27:25;100016.31;;;8.13;76.50
60974;BME280;46846;51.528;5.076;2023-04-24T08:29:50;100020.88;;;8.09;76.69
60974;BME280;46846;51.528;5.076;2023-04-24T08:32:16;100024.44;;;8.08;77.10
60974;BME280;46846;51.528;5.076;2023-04-24T08:34:41;100046.50;;;8.09;76.87
60974;BME280;46846;51.528;5.076;2023-04-24T08:37:06;100045.09;;;7.98;77.02
60974;BME280;46846;51.528;5.076;2023-04-24T08:39:32;100057.34;;;8.02;77.14
60974;BME280;46846;51.528;5.076;2023-04-24T08:41:57;100053.84;;;8.00;76.70
60974;BME280;46846;51.528;5.076;2023-04-24T08:44:30;100054.72;;;8.01;76.70
60974;BME280;46846;51.528;5.076;2023-04-24T08:46:56;100050.22;;;8.03;77.13
60974;BME280;46846;51.528;5.076;2023-04-24T08:49:22;100056.41;;;8.03;76.75
60974;BME280;46846;51.528;5.076;2023-04-24T08:51:49;100059.84;;;8.05;76.71
60974;BME280;46846;51.528;5.076;2023-04-24T08:54:15;100061.66;;;8.05;76.62
60974;BME280;46846;51.528;5.076;2023-04-24T08:56:40;100068.59;;;8.07;76.58
60974;BME280;46846;51.528;5.076;2023-04-24T08:59:08;100073.09;;;8.05;76.73
60974;BME280;46846;51.528;5.076;2023-04-24T09:01:34;100073.00;;;8.09;76.95
60974;BME280;46846;51.528;5.076;2023-04-24T09:04:03;100074.97;;;8.03;77.06
60974;BME280;46846;51.528;5.076;2023-04-24T09:06:29;100076.56;;;8.07;76.99
60974;BME280;46846;51.528;5.076;2023-04-24T09:08:55;100082.59;;;8.11;76.87
60974;BME280;46846;51.528;5.076;2023-04-24T09:11:22;100091.59;;;8.07;76.94
60974;BME280;46846;51.528;5.076;2023-04-24T09:13:49;100091.69;;;8.04;76.76
60974;BME280;46846;51.528;5.076;2023-04-24T09:16:14;100103.22;;;8.03;76.69
60974;BME280;46846;51.528;5.076;2023-04-24T09:18:40;100110.53;;;7.96;77.13
60974;BME280;46846;51.528;5.076;2023-04-24T09:21:08;100108.09;;;7.90;77.12
60974;BME280;46846;51.528;5.076;2023-04-24T09:23:34;100116.81;;;7.93;77.03
60974;BME280;46846;51.528;5.076;2023-04-24T09:26:00;100121.22;;;7.93;77.27
60974;BME280;46846;51.528;5.076;2023-04-24T09:28:35;100120.25;;;7.96;77.07
60974;BME280;46846;51.528;5.076;2023-04-24T09:31:01;100136.16;;;7.96;76.54
60974;BME280;46846;51.528;5.076;2023-04-24T09:33:27;100126.31;;;7.99;76.72
60974;BME280;46846;51.528;5.076;2023-04-24T09:35:52;100133.56;;;7.94;76.78
60974;BME280;46846;51.528;5.076;2023-04-24T09:38:17;100140.59;;;7.95;76.83
60974;BME280;46846;51.528;5.076;2023-04-24T09:40:43;100136.28;;;7.92;77.25
60974;BME280;46846;51.528;5.076;2023-04-24T09:43:11;100139.63;;;7.98;77.00
60974;BME280;46846;51.528;5.076;2023-04-24T09:45:37;100147.63;;;7.96;77.01
60974;BME280;46846;51.528;5.076;2023-04-24T09:48:03;100145.03;;;7.94;76.74
60974;BME280;46846;51.528;5.076;2023-04-24T09:50:29;100157.31;;;7.97;76.24
60974;BME280;46846;51.528;5.076;2023-04-24T09:52:57;100160.13;;;7.92;77.08
60974;BME280;46846;51.528;5.076;2023-04-24T09:55:23;100156.50;;;7.95;76.45
60974;BME280;46846;51.528;5.076;2023-04-24T09:57:55;100155.53;;;7.98;76.25
60974;BME280;46846;51.528;5.076;2023-04-24T10:00:24;100163.41;;;7.99;75.88
60974;BME280;46846;51.528;5.076;2023-04-24T10:03:01;100167.84;;;7.99;76.30
60974;BME280;46846;51.528;5.076;2023-04-24T10:05:28;100177.56;;;7.98;75.87
60974;BME280;46846;51.528;5.076;2023-04-24T10:07:58;100185.63;;;7.95;75.54
60974;BME280;46846;51.528;5.076;2023-04-24T10:10:24;100188.16;;;7.98;75.34
60974;BME280;46846;51.528;5.076;2023-04-24T10:12:50;100190.00;;;7.96;75.25
60974;BME280;46846;51.528;5.076;2023-04-24T10:15:16;100187.38;;;7.96;75.58
60974;BME280;46846;51.528;5.076;2023-04-24T10:17:45;100190.78;;;8.00;75.46
60974;BME280;46846;51.528;5.076;2023-04-24T10:20:17;100186.31;;;8.00;75.50
60974;BME280;46846;51.528;5.076;2023-04-24T10:22:42;100194.19;;;8.03;75.43
60974;BME280;46846;51.528;5.076;2023-04-24T10:25:08;100198.53;;;8.06;75.24
60974;BME280;46846;51.528;5.076;2023-04-24T10:27:33;100195.97;;;8.03;75.63
60974;BME280;46846;51.528;5.076;2023-04-24T10:30:00;100195.09;;;8.02;75.56
60974;BME280;46846;51.528;5.076;2023-04-24T10:32:26;100195.09;;;8.02;75.33
60974;BME280;46846;51.528;5.076;2023-04-24T10:34:51;100194.16;;;8.05;75.30
60974;BME280;46846;51.528;5.076;2023-04-24T10:37:16;100199.47;;;8.03;75.66
60974;BME280;46846;51.528;5.076;2023-04-24T10:39:42;100203.81;;;8.06;75.32
60974;BME280;46846;51.528;5.076;2023-04-24T10:42:16;100201.81;;;8.13;75.46
60974;BME280;46846;51.528;5.076;2023-04-24T10:44:42;100208.03;;;8.12;75.31
60974;BME280;46846;51.528;5.076;2023-04-24T10:47:12;100211.59;;;8.11;75.53
60974;BME280;46846;51.528;5.076;2023-04-24T10:49:38;100223.94;;;8.12;75.41
60974;BME280;46846;51.528;5.076;2023-04-24T10:52:03;100224.06;;;8.09;74.97
60974;BME280;46846;51.528;5.076;2023-04-24T10:59:44;100226.47;;;8.15;74.75
60974;BME280;46846;51.528;5.076;2023-04-24T11:02:10;100232.47;;;8.20;74.67
60974;BME280;46846;51.528;5.076;2023-04-24T11:04:35;100237.75;;;8.21;74.77
60974;BME280;46846;51.528;5.076;2023-04-24T11:07:02;100239.44;;;8.24;74.36
60974;BME280;46846;51.528;5.076;2023-04-24T11:09:28;100242.13;;;8.23;74.76
60974;BME280;46846;51.528;5.076;2023-04-24T11:12:04;100236.09;;;8.17;75.16
60974;BME280;46846;51.528;5.076;2023-04-24T11:14:54;100233.28;;;8.22;75.00
60974;BME280;46846;51.528;5.076;2023-04-24T11:19:59;100255.56;;;8.16;75.24
60974;BME280;46846;51.528;5.076;2023-04-24T11:22:25;100251.16;;;8.17;75.34
60974;BME280;46846;51.528;5.076;2023-04-24T11:24:53;100264.28;;;8.20;74.67
60974;BME280;46846;51.528;5.076;2023-04-24T11:27:19;100257.25;;;8.19;74.91
60974;BME280;46846;51.528;5.076;2023-04-24T11:35:12;100273.75;;;8.27;74.01
60974;BME280;46846;51.528;5.076;2023-04-24T11:37:38;100276.41;;;8.27;74.47
60974;BME280;46846;51.528;5.076;2023-04-24T11:40:05;100281.66;;;8.29;74.73
60974;BME280;46846;51.528;5.076;2023-04-24T11:42:34;100278.09;;;8.30;74.87
60974;BME280;46846;51.528;5.076;2023-04-24T11:44:59;100291.34;;;8.30;74.37
60974;BME280;46846;51.528;5.076;2023-04-24T11:47:30;100286.91;;;8.30;74.73
60974;BME280;46846;51.528;5.076;2023-04-24T11:49:55;100293.84;;;8.34;74.78
60974;BME280;46846;51.528;5.076;2023-04-24T11:52:20;100299.16;;;8.34;74.75
60974;BME280;46846;51.528;5.076;2023-04-24T11:54:49;100298.22;;;8.35;74.54
60974;BME280;46846;51.528;5.076;2023-04-24T11:57:15;100305.25;;;8.37;74.69
60974;BME280;46846;51.528;5.076;2023-04-24T11:59:40;100297.41;;;8.33;74.98
60974;BME280;46846;51.528;5.076;2023-04-24T12:02:06;100302.72;;;8.33;74.57
60974;BME280;46846;51.528;5.076;2023-04-24T12:04:38;100305.31;;;8.35;74.45
60974;BME280;46846;51.528;5.076;2023-04-24T12:07:03;100314.13;;;8.35;74.83
60974;BME280;46846;51.528;5.076;2023-04-24T12:12:07;100322.75;;;8.42;74.75
60974;BME280;46846;51.528;5.076;2023-04-24T12:14:33;100322.03;;;8.37;74.89
60974;BME280;46846;51.528;5.076;2023-04-24T12:16:58;100326.38;;;8.40;73.58
60974;BME280;46846;51.528;5.076;2023-04-24T12:19:23;100322.88;;;8.38;74.43
60974;BME280;46846;51.528;5.076;2023-04-24T12:22:02;100322.03;;;8.37;74.64
60974;BME280;46846;51.528;5.076;2023-04-24T12:24:28;100317.53;;;8.39;74.73
60974;BME280;46846;51.528;5.076;2023-04-24T12:26:53;100322.69;;;8.44;74.29
60974;BME280;46846;51.528;5.076;2023-04-24T12:29:22;100324.41;;;8.45;74.71
60974;BME280;46846;51.528;5.076;2023-04-24T12:31:47;100334.94;;;8.48;74.63
60974;BME280;46846;51.528;5.076;2023-04-24T12:34:19;100340.16;;;8.51;74.73
60974;BME280;46846;51.528;5.076;2023-04-24T12:36:45;100341.03;;;8.50;74.74
60974;BME280;46846;51.528;5.076;2023-04-24T12:39:15;100344.50;;;8.54;74.77
60974;BME280;46846;51.528;5.076;2023-04-24T12:41:49;100347.16;;;8.54;74.68
60974;BME280;46846;51.528;5.076;2023-04-24T12:44:15;100352.31;;;8.57;74.70
60974;BME280;46846;51.528;5.076;2023-04-24T12:46:40;100356.78;;;8.56;74.51
60974;BME280;46846;51.528;5.076;2023-04-24T12:49:05;100355.06;;;8.55;74.75
60974;BME280;46846;51.528;5.076;2023-04-24T12:51:31;100364.03;;;8.51;75.05
60974;BME280;46846;51.528;5.076;2023-04-24T12:53:56;100364.81;;;8.53;75.00
60974;BME280;46846;51.528;5.076;2023-04-24T12:56:21;100379.13;;;8.47;75.17
60974;BME280;46846;51.528;5.076;2023-04-24T12:58:47;100379.13;;;8.47;75.26
60974;BME280;46846;51.528;5.076;2023-04-24T13:01:12;100380.81;;;8.50;75.08
60974;BME280;46846;51.528;5.076;2023-04-24T13:03:37;100375.34;;;8.56;74.91
60974;BME280;46846;51.528;5.076;2023-04-24T13:06:02;100380.69;;;8.55;75.20
60974;BME280;46846;51.528;5.076;2023-04-24T13:08:28;100374.38;;;8.59;74.82
60974;BME280;46846;51.528;5.076;2023-04-24T13:10:53;100375.22;;;8.59;75.13
60974;BME280;46846;51.528;5.076;2023-04-24T13:13:19;100375.22;;;8.59;75.38
60974;BME280;46846;51.528;5.076;2023-04-24T13:15:44;100368.88;;;8.65;75.17